Station Historical Data
Daily Summary for November 29, 2017 Units:  English    Metric   Both
« Previous Day
Next Day »
Daily Weekly Monthly Yearly Custom
  High: Low: Average:
Temperature: 57.2 °F 28.6 °F 41.6 °F
Dew Point: 40.6 °F 23.5 °F 30.5 °F
Humidity: 82% 44% 65%
Wind Speed: 18.0mph 0.0mph 4.3mph
Wind Gust: 27.0mph - -
Wind- - West
Pressure: 30.36 in 29.93 in -
Precipitation: 0.00 in    
Historical Graphs
 
 
Tabular Data for November 29, 2017
Time Temperature Dew Point Pressure Wind Wind Speed Wind Gust Humidity Rainfall Rate (Hourly)
00:04 57.2 °F 35.5 °F 29.93 in South 12.0 mph 23.0 mph 44% 0.00 in
00:09 57.0 °F 35.9 °F 29.93 in WSW 13.0 mph 25.0 mph 45% 0.00 in
00:19 56.8 °F 36.2 °F 29.93 in SW 17.0 mph 23.0 mph 46% 0.00 in
00:29 56.4 °F 36.4 °F 29.93 in WSW 14.0 mph 22.0 mph 47% 0.00 in
00:39 56.1 °F 36.7 °F 29.94 in WSW 13.0 mph 27.0 mph 48% 0.00 in
00:44 56.0 °F 37.1 °F 29.93 in WSW 13.0 mph 27.0 mph 49% 0.00 in
00:49 55.7 °F 37.3 °F 29.93 in WSW 12.0 mph 27.0 mph 50% 0.00 in
00:54 55.7 °F 37.3 °F 29.94 in SW 9.0 mph 21.0 mph 50% 0.00 in
00:59 55.5 °F 37.7 °F 29.94 in SSE 18.0 mph 25.0 mph 51% 0.00 in
01:04 55.3 °F 38.0 °F 29.95 in WSW 12.0 mph 20.0 mph 52% 0.00 in
01:19 54.0 °F 39.1 °F 29.95 in West 7.0 mph 19.0 mph 57% 0.00 in
01:24 53.8 °F 39.4 °F 29.95 in West 6.0 mph 21.0 mph 58% 0.00 in
01:29 53.7 °F 39.7 °F 29.95 in SW 14.0 mph 19.0 mph 59% 0.00 in
01:34 53.6 °F 40.0 °F 29.95 in SW 15.0 mph 18.0 mph 60% 0.00 in
01:39 53.6 °F 40.0 °F 29.96 in WSW 9.0 mph 20.0 mph 60% 0.00 in
01:44 53.6 °F 40.0 °F 29.96 in WSW 10.0 mph 20.0 mph 60% 0.00 in
01:49 53.6 °F 40.5 °F 29.96 in WSW 10.0 mph 20.0 mph 61% 0.00 in
01:59 53.3 °F 40.2 °F 29.97 in WSW 8.0 mph 15.0 mph 61% 0.00 in
02:04 53.2 °F 40.1 °F 29.97 in WNW 11.0 mph 14.0 mph 61% 0.00 in
02:09 53.1 °F 40.0 °F 29.97 in WSW 8.0 mph 14.0 mph 61% 0.00 in
02:14 53.0 °F 40.3 °F 29.97 in WSW 4.0 mph 15.0 mph 62% 0.00 in
02:49 52.2 °F 40.4 °F 29.98 in WSW 7.0 mph 13.0 mph 64% 0.00 in
02:54 52.1 °F 40.3 °F 29.98 in WSW 7.0 mph 13.0 mph 64% 0.00 in
02:59 52.0 °F 40.6 °F 29.98 in West 4.0 mph 10.0 mph 65% 0.00 in
03:04 51.9 °F 40.5 °F 29.98 in West 6.0 mph 10.0 mph 65% 0.00 in
03:09 51.8 °F 40.4 °F 29.99 in WSW 6.0 mph 13.0 mph 65% 0.00 in
03:14 51.7 °F 40.3 °F 29.99 in WSW 6.0 mph 13.0 mph 65% 0.00 in
03:19 51.5 °F 40.5 °F 29.99 in WSW 2.0 mph 14.0 mph 66% 0.00 in
03:24 51.3 °F 40.3 °F 29.99 in SW 6.0 mph 8.0 mph 66% 0.00 in
03:29 50.8 °F 40.2 °F 29.99 in WSW 4.0 mph 7.0 mph 67% 0.00 in
03:39 49.8 °F 40.4 °F 29.99 in West 6.0 mph 8.0 mph 70% 0.00 in
03:44 49.6 °F 40.6 °F 30.00 in WSW 4.0 mph 8.0 mph 71% 0.00 in
03:49 49.4 °F 40.4 °F 30.00 in WSW 5.0 mph 9.0 mph 71% 0.00 in
03:54 49.2 °F 40.6 °F 30.00 in WSW 5.0 mph 9.0 mph 72% 0.00 in
03:59 49.1 °F 40.1 °F 30.00 in WSW 4.0 mph 9.0 mph 71% 0.00 in
04:04 49.0 °F 40.0 °F 30.00 in West 5.0 mph 11.0 mph 71% 0.00 in
04:09 49.0 °F 40.0 °F 30.01 in West 4.0 mph 13.0 mph 71% 0.00 in
04:14 49.0 °F 39.6 °F 30.01 in West 6.0 mph 15.0 mph 70% 0.00 in
04:29 48.3 °F 38.6 °F 30.02 in West 5.0 mph 12.0 mph 69% 0.00 in
04:34 47.9 °F 37.8 °F 30.02 in WNW 6.0 mph 12.0 mph 68% 0.00 in
04:39 47.7 °F 37.3 °F 30.03 in West 9.0 mph 12.0 mph 67% 0.00 in
04:44 47.6 °F 36.8 °F 30.03 in West 7.0 mph 17.0 mph 66% 0.00 in
04:49 47.4 °F 36.2 °F 30.02 in West 7.0 mph 17.0 mph 65% 0.00 in
04:54 47.3 °F 36.1 °F 30.02 in West 6.0 mph 12.0 mph 65% 0.00 in
04:59 47.1 °F 35.9 °F 30.02 in West 6.0 mph 12.0 mph 65% 0.00 in
05:19 46.4 °F 35.7 °F 30.04 in West 5.0 mph 11.0 mph 66% 0.00 in
05:24 46.3 °F 35.6 °F 30.04 in West 2.0 mph 11.0 mph 66% 0.00 in
05:29 46.2 °F 35.5 °F 30.04 in West 7.0 mph 12.0 mph 66% 0.00 in
05:34 46.1 °F 35.7 °F 30.04 in West 3.0 mph 12.0 mph 67% 0.00 in
05:44 45.9 °F 34.4 °F 30.05 in West 8.0 mph 15.0 mph 64% 0.00 in
05:49 45.7 °F 34.2 °F 30.06 in West 7.0 mph 15.0 mph 64% 0.00 in
05:54 45.5 °F 34.0 °F 30.06 in West 6.0 mph 15.0 mph 64% 0.00 in
05:59 45.3 °F 33.8 °F 30.06 in West 5.0 mph 15.0 mph 64% 0.00 in
06:04 45.1 °F 33.6 °F 30.06 in NW 6.0 mph 11.0 mph 64% 0.00 in
06:09 44.9 °F 33.5 °F 30.06 in WSW 4.0 mph 9.0 mph 64% 0.00 in
06:19 44.7 °F 33.3 °F 30.07 in West 4.0 mph 11.0 mph 64% 0.00 in
06:24 44.6 °F 33.2 °F 30.07 in West 5.0 mph 15.0 mph 64% 0.00 in
06:29 44.5 °F 32.7 °F 30.08 in West 6.0 mph 15.0 mph 63% 0.00 in
06:34 44.3 °F 32.5 °F 30.08 in West 6.0 mph 11.0 mph 63% 0.00 in
06:39 44.1 °F 32.3 °F 30.08 in WNW 5.0 mph 12.0 mph 63% 0.00 in
06:44 44.0 °F 32.6 °F 30.08 in WSW 3.0 mph 11.0 mph 64% 0.00 in
06:54 43.5 °F 32.1 °F 30.09 in West 6.0 mph 13.0 mph 64% 0.00 in
07:09 43.2 °F 31.4 °F 30.11 in WNW 6.0 mph 12.0 mph 63% 0.00 in
07:14 43.1 °F 31.0 °F 30.11 in WNW 6.0 mph 14.0 mph 62% 0.00 in
07:19 43.0 °F 30.9 °F 30.11 in WNW 10.0 mph 13.0 mph 62% 0.00 in
07:24 43.0 °F 30.9 °F 30.12 in West 7.0 mph 15.0 mph 62% 0.00 in
07:39 42.5 °F 30.8 °F 30.12 in West 10.0 mph 12.0 mph 63% 0.00 in
07:49 42.4 °F 31.1 °F 30.13 in WNW 7.0 mph 11.0 mph 64% 0.00 in
07:54 42.4 °F 31.1 °F 30.14 in WNW 6.0 mph 12.0 mph 64% 0.00 in
07:59 42.5 °F 31.6 °F 30.14 in WNW 6.0 mph 14.0 mph 65% 0.00 in
08:04 42.6 °F 31.7 °F 30.15 in WNW 7.0 mph 15.0 mph 65% 0.00 in
08:09 42.7 °F 31.4 °F 30.16 in WNW 2.0 mph 10.0 mph 64% 0.00 in
08:14 42.7 °F 31.7 °F 30.16 in NW 5.0 mph 11.0 mph 65% 0.00 in
08:19 42.8 °F 31.8 °F 30.16 in West 6.0 mph 13.0 mph 65% 0.00 in
08:24 42.9 °F 31.9 °F 30.16 in WNW 6.0 mph 13.0 mph 65% 0.00 in
08:29 42.9 °F 31.9 °F 30.17 in WNW 6.0 mph 10.0 mph 65% 0.00 in
08:34 43.0 °F 32.4 °F 30.17 in WNW 5.0 mph 9.0 mph 66% 0.00 in
08:39 43.1 °F 32.1 °F 30.17 in WNW 5.0 mph 10.0 mph 65% 0.00 in
08:44 43.3 °F 32.3 °F 30.17 in West 6.0 mph 11.0 mph 65% 0.00 in
08:49 43.4 °F 32.4 °F 30.18 in WNW 8.0 mph 11.0 mph 65% 0.00 in
08:54 43.7 °F 32.7 °F 30.18 in West 6.0 mph 11.0 mph 65% 0.00 in
08:59 43.8 °F 32.4 °F 30.18 in WNW 6.0 mph 11.0 mph 64% 0.00 in
09:19 44.2 °F 32.4 °F 30.19 in West 8.0 mph 15.0 mph 63% 0.00 in
09:24 44.2 °F 32.4 °F 30.19 in West 8.0 mph 16.0 mph 63% 0.00 in
09:29 44.4 °F 32.6 °F 30.20 in WNW 8.0 mph 16.0 mph 63% 0.00 in
09:34 44.7 °F 32.9 °F 30.20 in WNW 7.0 mph 14.0 mph 63% 0.00 in
09:39 44.8 °F 33.0 °F 30.20 in WNW 6.0 mph 14.0 mph 63% 0.00 in
09:49 45.0 °F 32.8 °F 30.21 in West 9.0 mph 13.0 mph 62% 0.00 in
09:54 44.9 °F 32.3 °F 30.21 in WNW 12.0 mph 16.0 mph 61% 0.00 in
09:59 45.4 °F 32.7 °F 30.22 in WNW 7.0 mph 16.0 mph 61% 0.00 in
10:04 45.2 °F 31.7 °F 30.22 in WNW 7.0 mph 16.0 mph 59% 0.00 in
10:14 45.5 °F 32.0 °F 30.23 in West 4.0 mph 16.0 mph 59% 0.00 in
10:29 45.8 °F 32.3 °F 30.24 in NW 6.0 mph 14.0 mph 59% 0.00 in
10:34 45.7 °F 32.2 °F 30.25 in NW 7.0 mph 14.0 mph 59% 0.00 in
10:39 45.3 °F 31.8 °F 30.25 in WNW 7.0 mph 15.0 mph 59% 0.00 in
10:44 45.6 °F 32.5 °F 30.25 in WNW 7.0 mph 15.0 mph 60% 0.00 in
10:49 45.2 °F 31.7 °F 30.25 in NW 13.0 mph 17.0 mph 59% 0.00 in
10:54 44.2 °F 30.8 °F 30.26 in NNW 2.0 mph 20.0 mph 59% 0.00 in
10:59 44.0 °F 30.6 °F 30.26 in NW 7.0 mph 20.0 mph 59% 0.00 in
11:09 43.8 °F 30.0 °F 30.26 in NNW 9.0 mph 14.0 mph 58% 0.00 in
11:14 43.9 °F 30.1 °F 30.26 in NW 9.0 mph 15.0 mph 58% 0.00 in
11:19 44.5 °F 30.6 °F 30.26 in NW 5.0 mph 14.0 mph 58% 0.00 in
11:24 44.9 °F 30.6 °F 30.26 in NW 5.0 mph 13.0 mph 57% 0.00 in
11:34 44.4 °F 30.5 °F 30.27 in WNW 5.0 mph 14.0 mph 58% 0.00 in
11:39 44.1 °F 30.7 °F 30.27 in NW 4.0 mph 14.0 mph 59% 0.00 in
11:54 43.2 °F 30.2 °F 30.27 in NW 6.0 mph 13.0 mph 60% 0.00 in
11:59 43.1 °F 31.0 °F 30.27 in WNW 3.0 mph 11.0 mph 62% 0.00 in
12:04 42.9 °F 30.8 °F 30.27 in NW 10.0 mph 14.0 mph 62% 0.00 in
12:14 42.5 °F 30.0 °F 30.28 in NW 11.0 mph 12.0 mph 61% 0.00 in
12:24 42.3 °F 30.2 °F 30.28 in NW 10.0 mph 11.0 mph 62% 0.00 in
12:34 42.5 °F 30.0 °F 30.29 in NW 5.0 mph 12.0 mph 61% 0.00 in
12:39 42.0 °F 29.5 °F 30.29 in NNW 6.0 mph 12.0 mph 61% 0.00 in
12:44 41.8 °F 29.7 °F 30.29 in NNW 6.0 mph 12.0 mph 62% 0.00 in
12:49 42.1 °F 30.0 °F 30.29 in North 3.0 mph 14.0 mph 62% 0.00 in
12:54 41.8 °F 29.7 °F 30.29 in NW 3.0 mph 10.0 mph 62% 0.00 in
12:59 41.6 °F 29.5 °F 30.29 in NNW 5.0 mph 15.0 mph 62% 0.00 in
13:04 41.5 °F 29.4 °F 30.29 in NNW 5.0 mph 10.0 mph 62% 0.00 in
13:14 41.6 °F 29.5 °F 30.29 in WNW 4.0 mph 9.0 mph 62% 0.00 in
13:19 41.5 °F 29.4 °F 30.29 in NW 3.0 mph 11.0 mph 62% 0.00 in
13:24 41.9 °F 29.4 °F 30.30 in WNW 4.0 mph 10.0 mph 61% 0.00 in
13:34 41.8 °F 28.9 °F 30.30 in NW 5.0 mph 13.0 mph 60% 0.00 in
13:49 41.7 °F 29.2 °F 30.30 in WNW 5.0 mph 7.0 mph 61% 0.00 in
13:54 42.3 °F 29.4 °F 30.30 in WNW 6.0 mph 9.0 mph 60% 0.00 in
13:59 42.2 °F 29.3 °F 30.30 in West 7.0 mph 9.0 mph 60% 0.00 in
14:04 41.7 °F 28.8 °F 30.30 in WNW 5.0 mph 10.0 mph 60% 0.00 in
14:09 41.1 °F 28.7 °F 30.30 in WNW 7.0 mph 11.0 mph 61% 0.00 in
14:14 41.9 °F 29.0 °F 30.30 in NNW 2.0 mph 9.0 mph 60% 0.00 in
14:19 41.6 °F 28.7 °F 30.30 in West 5.0 mph 8.0 mph 60% 0.00 in
14:24 42.0 °F 29.1 °F 30.30 in NW 5.0 mph 8.0 mph 60% 0.00 in
14:29 42.4 °F 28.7 °F 30.30 in WNW 4.0 mph 9.0 mph 58% 0.00 in
14:49 41.9 °F 28.6 °F 30.30 in WNW 4.0 mph 5.0 mph 59% 0.00 in
14:54 42.1 °F 27.9 °F 30.30 in WNW 3.0 mph 6.0 mph 57% 0.00 in
14:59 41.4 °F 27.7 °F 30.30 in NW 3.0 mph 6.0 mph 58% 0.00 in
15:04 41.6 °F 27.1 °F 30.30 in NW 3.0 mph 6.0 mph 56% 0.00 in
15:09 42.1 °F 27.1 °F 30.31 in NW 3.0 mph 6.0 mph 55% 0.00 in
15:24 41.6 °F 27.1 °F 30.31 in NNW 1.0 mph 4.0 mph 56% 0.00 in
15:29 41.6 °F 27.1 °F 30.31 in North 1.0 mph 3.0 mph 56% 0.00 in
15:34 41.4 °F 26.9 °F 30.31 in North 3.0 mph 4.0 mph 56% 0.00 in
15:44 41.0 °F 26.9 °F 30.32 in NW 2.0 mph 6.0 mph 57% 0.00 in
15:49 40.8 °F 26.7 °F 30.32 in NW 2.0 mph 6.0 mph 57% 0.00 in
15:54 40.8 °F 26.3 °F 30.32 in Calm   2.0 mph 56% 0.00 in
15:59 40.4 °F 25.9 °F 30.32 in NW 1.0 mph 4.0 mph 56% 0.00 in
16:04 40.1 °F 25.6 °F 30.32 in NW 1.0 mph 4.0 mph 56% 0.00 in
16:14 39.5 °F 25.9 °F 30.32 in Calm   3.0 mph 58% 0.00 in
16:19 39.3 °F 25.7 °F 30.32 in Calm   3.0 mph 58% 0.00 in
16:24 39.1 °F 26.0 °F 30.33 in Calm     59% 0.00 in
16:29 39.0 °F 25.5 °F 30.33 in Calm     58% 0.00 in
16:34 38.9 °F 25.8 °F 30.32 in Calm     59% 0.00 in
16:39 38.6 °F 25.5 °F 30.32 in Calm     59% 0.00 in
16:44 38.4 °F 25.7 °F 30.33 in Calm     60% 0.00 in
16:49 38.2 °F 25.5 °F 30.33 in NW 3.0 mph 3.0 mph 60% 0.00 in
16:54 38.0 °F 25.7 °F 30.33 in Calm   3.0 mph 61% 0.00 in
16:59 37.7 °F 25.5 °F 30.33 in Calm     61% 0.00 in
17:04 37.5 °F 25.3 °F 30.33 in Calm     61% 0.00 in
17:14 36.9 °F 25.5 °F 30.33 in Calm     63% 0.00 in
17:29 36.1 °F 25.1 °F 30.34 in Calm     64% 0.00 in
17:34 35.9 °F 25.3 °F 30.34 in Calm     65% 0.00 in
17:39 35.5 °F 25.3 °F 30.34 in Calm     66% 0.00 in
17:44 35.5 °F 25.3 °F 30.34 in Calm     66% 0.00 in
17:49 35.2 °F 25.0 °F 30.34 in Calm     66% 0.00 in
17:54 34.8 °F 25.0 °F 30.34 in Calm     67% 0.00 in
17:59 34.5 °F 25.0 °F 30.34 in Calm     68% 0.00 in
18:04 34.5 °F 25.0 °F 30.35 in Calm     68% 0.00 in
18:09 34.2 °F 24.7 °F 30.35 in Calm     68% 0.00 in
18:14 33.9 °F 24.8 °F 30.35 in Calm     69% 0.00 in
18:24 33.5 °F 24.8 °F 30.35 in Calm     70% 0.00 in
18:29 33.4 °F 24.7 °F 30.35 in Calm     70% 0.00 in
18:34 33.0 °F 24.6 °F 30.35 in Calm     71% 0.00 in
18:39 32.8 °F 24.4 °F 30.36 in Calm     71% 0.00 in
18:49 32.2 °F 24.2 °F 30.36 in Calm     72% 0.00 in
18:54 32.1 °F 24.4 °F 30.35 in Calm     73% 0.00 in
18:59 32.0 °F 24.6 °F 30.35 in Calm     74% 0.00 in
19:04 31.7 °F 24.4 °F 30.35 in Calm     74% 0.00 in
19:09 31.5 °F 24.2 °F 30.35 in Calm     74% 0.00 in
19:14 31.3 °F 24.3 °F 30.35 in Calm     75% 0.00 in
19:19 30.9 °F 23.9 °F 30.35 in Calm     75% 0.00 in
19:24 30.9 °F 24.2 °F 30.35 in Calm     76% 0.00 in
19:39 32.6 °F 25.2 °F 30.35 in Calm     74% 0.00 in
19:54 31.4 °F 24.4 °F 30.35 in Calm     75% 0.00 in
19:59 30.9 °F 23.9 °F 30.35 in Calm     75% 0.00 in
20:04 30.9 °F 24.5 °F 30.35 in Calm     77% 0.00 in
20:09 31.2 °F 24.5 °F 30.35 in Calm     76% 0.00 in
20:14 30.8 °F 24.1 °F 30.34 in Calm     76% 0.00 in
20:19 30.6 °F 24.2 °F 30.35 in Calm     77% 0.00 in
20:24 31.0 °F 24.6 °F 30.35 in Calm     77% 0.00 in
20:29 31.4 °F 25.0 °F 30.34 in Calm   1.0 mph 77% 0.00 in
20:39 31.5 °F 24.8 °F 30.34 in Calm     76% 0.00 in
20:44 31.3 °F 24.6 °F 30.34 in Calm     76% 0.00 in
20:49 31.2 °F 24.8 °F 30.34 in Calm     77% 0.00 in
20:54 31.0 °F 24.6 °F 30.35 in Calm     77% 0.00 in
20:59 30.7 °F 24.3 °F 30.34 in Calm     77% 0.00 in
21:19 30.1 °F 24.1 °F 30.34 in Calm     78% 0.00 in
21:34 30.1 °F 24.4 °F 30.34 in Calm     79% 0.00 in
21:44 30.0 °F 24.3 °F 30.33 in Calm     79% 0.00 in
21:49 29.8 °F 24.1 °F 30.34 in Calm     79% 0.00 in
21:54 29.7 °F 24.0 °F 30.33 in Calm   1.0 mph 79% 0.00 in
21:59 29.6 °F 23.9 °F 30.33 in Calm   3.0 mph 79% 0.00 in
22:04 29.5 °F 24.1 °F 30.33 in Calm   1.0 mph 80% 0.00 in
22:09 29.4 °F 24.0 °F 30.32 in Calm   2.0 mph 80% 0.00 in
22:14 29.4 °F 24.0 °F 30.32 in Calm     80% 0.00 in
22:19 29.3 °F 23.9 °F 30.32 in Calm     80% 0.00 in
22:34 29.1 °F 23.7 °F 30.31 in Calm     80% 0.00 in
22:44 29.0 °F 23.9 °F 30.31 in Calm   2.0 mph 81% 0.00 in
22:49 28.8 °F 23.7 °F 30.30 in Calm     81% 0.00 in
22:59 28.9 °F 23.8 °F 30.29 in ESE 1.0 mph 5.0 mph 81% 0.00 in
23:04 28.9 °F 23.8 °F 30.29 in East 1.0 mph 5.0 mph 81% 0.00 in
23:14 28.7 °F 23.9 °F 30.29 in Calm   3.0 mph 82% 0.00 in
23:24 28.7 °F 23.9 °F 30.29 in SE 1.0 mph 4.0 mph 82% 0.00 in
23:29 28.7 °F 23.6 °F 30.29 in Calm   4.0 mph 81% 0.00 in
23:44 28.7 °F 23.6 °F 30.27 in ESE 2.0 mph 6.0 mph 81% 0.00 in
23:49 28.6 °F 23.5 °F 30.27 in ESE 2.0 mph 6.0 mph 81% 0.00 in
23:54 28.6 °F 23.5 °F 30.26 in East 2.0 mph 6.0 mph 81% 0.00 in
23:59 28.7 °F 23.6 °F 30.26 in SE 1.0 mph 7.0 mph 81% 0.00 in
Buffalo, New York, USA
Compliments of Weather Underground - 2 mb